sensor_id;sensor_type;location;lat;lon;timestamp;noise_LAeq;noise_LA_min;noise_LA_max;noise_LA01;noise_LA95
46749;Laerm;33775;47.992;11.864;2023-03-01T00:00:48;36.47;29.92;39.92;;
46749;Laerm;33775;47.992;11.864;2023-03-01T00:03:13;36.49;29.92;40.13;;
46749;Laerm;33775;47.992;11.864;2023-03-01T00:05:45;36.46;29.92;39.81;;
46749;Laerm;33775;47.992;11.864;2023-03-01T00:08:11;36.49;29.92;39.81;;
46749;Laerm;33775;47.992;11.864;2023-03-01T00:10:36;36.51;30.89;39.58;;
46749;Laerm;33775;47.992;11.864;2023-03-01T00:13:01;36.49;29.92;39.70;;
46749;Laerm;33775;47.992;11.864;2023-03-01T00:15:26;36.45;30.89;39.81;;
46749;Laerm;33775;47.992;11.864;2023-03-01T00:17:52;36.49;30.89;39.58;;
46749;Laerm;33775;47.992;11.864;2023-03-01T00:20:17;36.48;29.92;39.92;;
46749;Laerm;33775;47.992;11.864;2023-03-01T00:22:42;36.49;23.90;39.46;;
46749;Laerm;33775;47.992;11.864;2023-03-01T00:25:07;36.45;29.92;39.58;;
46749;Laerm;33775;47.992;11.864;2023-03-01T00:27:32;36.46;29.92;39.70;;
46749;Laerm;33775;47.992;11.864;2023-03-01T00:29:58;36.47;26.91;40.13;;
46749;Laerm;33775;47.992;11.864;2023-03-01T00:32:23;36.50;30.89;39.46;;
46749;Laerm;33775;47.992;11.864;2023-03-01T00:34:48;36.52;28.67;39.81;;
46749;Laerm;33775;47.992;11.864;2023-03-01T00:37:19;36.52;29.92;39.58;;
46749;Laerm;33775;47.992;11.864;2023-03-01T00:39:44;36.53;29.92;40.03;;
46749;Laerm;33775;47.992;11.864;2023-03-01T00:42:09;36.50;30.89;39.70;;
46749;Laerm;33775;47.992;11.864;2023-03-01T00:44:34;36.49;29.92;40.03;;
46749;Laerm;33775;47.992;11.864;2023-03-01T00:47:00;36.51;28.67;39.34;;
46749;Laerm;33775;47.992;11.864;2023-03-01T00:49:25;36.53;29.92;39.46;;
46749;Laerm;33775;47.992;11.864;2023-03-01T00:51:52;36.51;29.92;39.58;;
46749;Laerm;33775;47.992;11.864;2023-03-01T00:54:17;36.51;28.67;40.43;;
46749;Laerm;33775;47.992;11.864;2023-03-01T00:56:43;36.51;29.92;39.92;;
46749;Laerm;33775;47.992;11.864;2023-03-01T00:59:08;36.50;26.91;39.58;;
46749;Laerm;33775;47.992;11.864;2023-03-01T01:01:33;36.50;30.89;39.70;;
46749;Laerm;33775;47.992;11.864;2023-03-01T01:04:03;36.50;29.92;39.46;;
46749;Laerm;33775;47.992;11.864;2023-03-01T01:06:29;36.47;29.92;39.70;;
46749;Laerm;33775;47.992;11.864;2023-03-01T01:08:55;36.53;29.92;40.03;;
46749;Laerm;33775;47.992;11.864;2023-03-01T01:11:21;36.51;29.92;39.58;;
46749;Laerm;33775;47.992;11.864;2023-03-01T01:13:46;36.48;29.92;39.70;;
46749;Laerm;33775;47.992;11.864;2023-03-01T01:16:12;36.53;29.57;39.34;;
46749;Laerm;33775;47.992;11.864;2023-03-01T01:18:37;36.50;29.92;39.58;;
46749;Laerm;33775;47.992;11.864;2023-03-01T01:21:06;36.51;28.67;39.81;;
46749;Laerm;33775;47.992;11.864;2023-03-01T01:23:32;36.50;29.92;39.70;;
46749;Laerm;33775;47.992;11.864;2023-03-01T01:25:57;36.51;28.67;40.23;;
46749;Laerm;33775;47.992;11.864;2023-03-01T01:28:28;36.51;29.92;39.46;;
46749;Laerm;33775;47.992;11.864;2023-03-01T01:30:53;36.52;28.32;39.81;;
46749;Laerm;33775;47.992;11.864;2023-03-01T01:33:18;36.52;29.57;39.81;;
46749;Laerm;33775;47.992;11.864;2023-03-01T01:35:44;36.50;29.92;39.46;;
46749;Laerm;33775;47.992;11.864;2023-03-01T01:38:09;36.48;28.67;39.34;;
46749;Laerm;33775;47.992;11.864;2023-03-01T01:40:35;36.49;26.91;39.92;;
46749;Laerm;33775;47.992;11.864;2023-03-01T01:43:09;36.53;28.67;39.58;;
46749;Laerm;33775;47.992;11.864;2023-03-01T01:45:37;36.51;29.92;40.03;;
46749;Laerm;33775;47.992;11.864;2023-03-01T01:48:07;36.51;28.67;39.70;;
46749;Laerm;33775;47.992;11.864;2023-03-01T01:50:35;36.54;30.89;39.89;;
46749;Laerm;33775;47.992;11.864;2023-03-01T01:53:08;36.48;29.92;39.46;;
46749;Laerm;33775;47.992;11.864;2023-03-01T01:55:34;36.50;30.89;39.34;;
46749;Laerm;33775;47.992;11.864;2023-03-01T01:58:02;36.50;30.89;39.70;;
46749;Laerm;33775;47.992;11.864;2023-03-01T02:00:29;36.50;29.92;39.34;;
46749;Laerm;33775;47.992;11.864;2023-03-01T02:02:56;36.52;30.89;39.92;;
46749;Laerm;33775;47.992;11.864;2023-03-01T02:07:50;36.48;29.92;39.92;;
46749;Laerm;33775;47.992;11.864;2023-03-01T02:10:16;36.48;28.67;39.58;;
46749;Laerm;33775;47.992;11.864;2023-03-01T02:12:41;36.51;28.67;40.03;;
46749;Laerm;33775;47.992;11.864;2023-03-01T02:15:07;36.53;28.67;39.92;;
46749;Laerm;33775;47.992;11.864;2023-03-01T02:17:32;36.51;30.89;39.92;;
46749;Laerm;33775;47.992;11.864;2023-03-01T02:22:32;36.52;29.57;39.70;;
46749;Laerm;33775;47.992;11.864;2023-03-01T02:27:40;36.50;30.89;39.34;;
46749;Laerm;33775;47.992;11.864;2023-03-01T02:30:08;36.52;29.92;39.78;;
46749;Laerm;33775;47.992;11.864;2023-03-01T02:32:37;36.49;29.92;39.70;;
46749;Laerm;33775;47.992;11.864;2023-03-01T02:35:02;36.51;29.57;39.92;;
46749;Laerm;33775;47.992;11.864;2023-03-01T02:37:31;36.50;30.89;39.92;;
46749;Laerm;33775;47.992;11.864;2023-03-01T02:39:58;36.49;29.92;39.46;;
46749;Laerm;33775;47.992;11.864;2023-03-01T02:42:30;36.49;30.89;39.81;;
46749;Laerm;33775;47.992;11.864;2023-03-01T02:44:57;36.50;28.67;39.81;;
46749;Laerm;33775;47.992;11.864;2023-03-01T02:47:23;36.52;30.89;39.81;;
46749;Laerm;33775;47.992;11.864;2023-03-01T02:49:48;36.52;29.92;39.81;;
46749;Laerm;33775;47.992;11.864;2023-03-01T02:57:29;36.49;28.67;39.70;;
46749;Laerm;33775;47.992;11.864;2023-03-01T02:59:56;36.51;28.67;39.70;;
46749;Laerm;33775;47.992;11.864;2023-03-01T03:02:26;36.53;23.90;39.92;;
46749;Laerm;33775;47.992;11.864;2023-03-01T03:07:31;36.52;28.67;39.46;;
46749;Laerm;33775;47.992;11.864;2023-03-01T03:09:56;36.51;26.91;39.46;;
46749;Laerm;33775;47.992;11.864;2023-03-01T03:12:21;36.48;26.91;39.58;;
46749;Laerm;33775;47.992;11.864;2023-03-01T03:14:46;36.48;30.89;40.13;;
46749;Laerm;33775;47.992;11.864;2023-03-01T03:17:11;36.48;26.91;39.58;;
46749;Laerm;33775;47.992;11.864;2023-03-01T03:19:36;36.46;30.89;39.46;;
46749;Laerm;33775;47.992;11.864;2023-03-01T03:22:02;36.50;26.91;39.70;;
46749;Laerm;33775;47.992;11.864;2023-03-01T03:24:27;36.49;28.67;39.70;;
46749;Laerm;33775;47.992;11.864;2023-03-01T03:27:05;36.50;26.91;39.92;;
46749;Laerm;33775;47.992;11.864;2023-03-01T03:29:31;36.50;28.67;39.58;;
46749;Laerm;33775;47.992;11.864;2023-03-01T03:31:56;36.52;26.56;39.81;;
46749;Laerm;33775;47.992;11.864;2023-03-01T03:34:21;36.49;28.67;39.58;;
46749;Laerm;33775;47.992;11.864;2023-03-01T03:36:46;36.46;28.67;39.70;;
46749;Laerm;33775;47.992;11.864;2023-03-01T03:39:12;36.45;26.91;39.92;;
46749;Laerm;33775;47.992;11.864;2023-03-01T03:41:37;36.44;29.57;39.81;;
46749;Laerm;33775;47.992;11.864;2023-03-01T03:44:02;36.45;29.92;39.70;;
46749;Laerm;33775;47.992;11.864;2023-03-01T03:46:27;36.46;29.92;39.58;;
46749;Laerm;33775;47.992;11.864;2023-03-01T03:48:52;36.46;29.92;39.46;;
46749;Laerm;33775;47.992;11.864;2023-03-01T03:51:18;36.43;28.67;39.58;;
46749;Laerm;33775;47.992;11.864;2023-03-01T03:53:44;36.45;30.89;39.70;;
46749;Laerm;33775;47.992;11.864;2023-03-01T03:56:09;36.44;29.92;39.46;;
46749;Laerm;33775;47.992;11.864;2023-03-01T03:58:34;36.46;30.89;39.46;;
46749;Laerm;33775;47.992;11.864;2023-03-01T04:00:59;36.45;30.89;39.46;;
46749;Laerm;33775;47.992;11.864;2023-03-01T04:03:26;36.42;28.67;39.81;;
46749;Laerm;33775;47.992;11.864;2023-03-01T04:05:52;36.42;28.67;39.46;;
46749;Laerm;33775;47.992;11.864;2023-03-01T04:08:21;36.44;29.92;39.58;;
46749;Laerm;33775;47.992;11.864;2023-03-01T04:10:47;36.45;26.91;39.35;;
46749;Laerm;33775;47.992;11.864;2023-03-01T04:13:15;36.47;30.89;39.46;;
46749;Laerm;33775;47.992;11.864;2023-03-01T04:15:40;36.46;29.92;39.58;;
46749;Laerm;33775;47.992;11.864;2023-03-01T04:18:05;36.43;28.67;39.58;;
46749;Laerm;33775;47.992;11.864;2023-03-01T04:20:32;36.44;29.92;39.46;;
46749;Laerm;33775;47.992;11.864;2023-03-01T04:25:23;36.48;29.92;39.46;;
46749;Laerm;33775;47.992;11.864;2023-03-01T04:27:49;36.49;29.92;39.78;;
46749;Laerm;33775;47.992;11.864;2023-03-01T04:30:14;36.50;29.92;39.46;;
46749;Laerm;33775;47.992;11.864;2023-03-01T04:32:39;36.52;28.67;39.46;;
46749;Laerm;33775;47.992;11.864;2023-03-01T04:35:04;36.49;30.89;39.58;;
46749;Laerm;33775;47.992;11.864;2023-03-01T04:37:30;36.49;30.89;39.70;;
46749;Laerm;33775;47.992;11.864;2023-03-01T04:39:55;36.50;28.67;39.70;;
46749;Laerm;33775;47.992;11.864;2023-03-01T04:42:20;36.48;26.91;39.70;;
46749;Laerm;33775;47.992;11.864;2023-03-01T04:44:45;36.48;29.92;39.92;;
46749;Laerm;33775;47.992;11.864;2023-03-01T04:47:11;36.52;29.92;39.57;;
46749;Laerm;33775;47.992;11.864;2023-03-01T04:49:36;36.45;28.67;39.58;;
46749;Laerm;33775;47.992;11.864;2023-03-01T04:52:02;36.46;29.92;39.70;;
46749;Laerm;33775;47.992;11.864;2023-03-01T04:54:27;36.46;29.92;39.81;;
46749;Laerm;33775;47.992;11.864;2023-03-01T04:56:53;36.45;29.92;39.58;;
46749;Laerm;33775;47.992;11.864;2023-03-01T04:59:18;36.46;29.92;39.70;;
46749;Laerm;33775;47.992;11.864;2023-03-01T05:01:47;36.49;29.57;39.58;;
46749;Laerm;33775;47.992;11.864;2023-03-01T05:04:12;36.46;30.89;39.70;;
46749;Laerm;33775;47.992;11.864;2023-03-01T05:06:37;36.48;29.92;39.46;;
46749;Laerm;33775;47.992;11.864;2023-03-01T05:09:03;36.45;28.67;39.92;;
46749;Laerm;33775;47.992;11.864;2023-03-01T05:11:28;36.45;30.89;39.46;;
46749;Laerm;33775;47.992;11.864;2023-03-01T05:13:58;36.49;26.91;40.53;;
46749;Laerm;33775;47.992;11.864;2023-03-01T05:16:23;36.50;29.57;39.58;;
46749;Laerm;33775;47.992;11.864;2023-03-01T05:18:48;36.47;29.92;39.70;;
46749;Laerm;33775;47.992;11.864;2023-03-01T05:21:15;36.47;29.92;39.46;;
46749;Laerm;33775;47.992;11.864;2023-03-01T05:23:43;36.48;29.57;40.03;;
46749;Laerm;33775;47.992;11.864;2023-03-01T05:26:08;36.46;30.89;39.58;;
46749;Laerm;33775;47.992;11.864;2023-03-01T05:28:34;36.46;30.89;39.34;;
46749;Laerm;33775;47.992;11.864;2023-03-01T05:30:59;36.45;26.91;39.70;;
46749;Laerm;33775;47.992;11.864;2023-03-01T05:33:24;36.49;29.92;39.58;;
46749;Laerm;33775;47.992;11.864;2023-03-01T05:35:50;36.48;29.92;39.46;;
46749;Laerm;33775;47.992;11.864;2023-03-01T05:38:16;36.46;28.67;39.70;;
46749;Laerm;33775;47.992;11.864;2023-03-01T05:40:42;36.47;28.67;39.70;;
46749;Laerm;33775;47.992;11.864;2023-03-01T05:43:08;36.48;23.90;40.13;;
46749;Laerm;33775;47.992;11.864;2023-03-01T05:45:35;36.50;28.67;39.70;;
46749;Laerm;33775;47.992;11.864;2023-03-01T05:48:00;36.48;29.92;39.46;;
46749;Laerm;33775;47.992;11.864;2023-03-01T05:50:27;36.50;26.91;39.70;;
46749;Laerm;33775;47.992;11.864;2023-03-01T05:52:57;36.48;28.32;39.58;;
46749;Laerm;33775;47.992;11.864;2023-03-01T05:55:22;36.48;26.91;39.70;;
46749;Laerm;33775;47.992;11.864;2023-03-01T05:57:48;36.47;29.92;39.34;;
46749;Laerm;33775;47.992;11.864;2023-03-01T06:00:15;36.49;28.67;39.58;;
46749;Laerm;33775;47.992;11.864;2023-03-01T06:02:40;36.51;28.67;39.58;;
46749;Laerm;33775;47.992;11.864;2023-03-01T06:05:07;36.53;29.92;39.81;;
46749;Laerm;33775;47.992;11.864;2023-03-01T06:07:33;36.53;29.57;39.81;;
46749;Laerm;33775;47.992;11.864;2023-03-01T06:09:58;36.50;29.92;39.70;;
46749;Laerm;33775;47.992;11.864;2023-03-01T06:12:23;36.52;30.89;39.46;;
46749;Laerm;33775;47.992;11.864;2023-03-01T06:14:49;36.54;30.89;40.08;;
46749;Laerm;33775;47.992;11.864;2023-03-01T06:17:14;36.50;26.91;39.92;;
46749;Laerm;33775;47.992;11.864;2023-03-01T06:19:39;36.51;29.92;39.92;;
46749;Laerm;33775;47.992;11.864;2023-03-01T06:22:04;36.53;29.92;39.58;;
46749;Laerm;33775;47.992;11.864;2023-03-01T06:24:29;36.54;29.92;39.99;;
46749;Laerm;33775;47.992;11.864;2023-03-01T06:26:55;36.56;28.67;39.46;;
46749;Laerm;33775;47.992;11.864;2023-03-01T06:29:20;36.58;29.92;39.70;;
46749;Laerm;33775;47.992;11.864;2023-03-01T06:31:47;36.56;28.67;39.70;;
46749;Laerm;33775;47.992;11.864;2023-03-01T06:34:12;36.57;29.92;40.03;;
46749;Laerm;33775;47.992;11.864;2023-03-01T06:36:38;36.55;29.92;39.81;;
46749;Laerm;33775;47.992;11.864;2023-03-01T06:39:03;36.50;30.89;39.58;;
46749;Laerm;33775;47.992;11.864;2023-03-01T06:41:30;36.52;29.92;39.70;;
46749;Laerm;33775;47.992;11.864;2023-03-01T06:43:55;36.51;29.92;39.70;;
46749;Laerm;33775;47.992;11.864;2023-03-01T06:46:20;36.54;28.67;39.70;;
46749;Laerm;33775;47.992;11.864;2023-03-01T06:48:46;36.48;26.91;39.58;;
46749;Laerm;33775;47.992;11.864;2023-03-01T06:51:11;36.49;29.92;39.70;;
46749;Laerm;33775;47.992;11.864;2023-03-01T06:53:36;36.50;30.89;39.58;;
46749;Laerm;33775;47.992;11.864;2023-03-01T06:56:02;36.49;29.92;39.70;;
46749;Laerm;33775;47.992;11.864;2023-03-01T06:58:27;36.50;28.67;39.70;;
46749;Laerm;33775;47.992;11.864;2023-03-01T07:00:52;36.55;29.92;39.70;;
46749;Laerm;33775;47.992;11.864;2023-03-01T07:03:17;36.53;30.89;39.70;;
46749;Laerm;33775;47.992;11.864;2023-03-01T07:05:43;36.49;29.57;39.70;;
46749;Laerm;33775;47.992;11.864;2023-03-01T07:08:09;36.53;29.92;39.58;;
46749;Laerm;33775;47.992;11.864;2023-03-01T07:10:34;36.50;30.89;39.70;;
46749;Laerm;33775;47.992;11.864;2023-03-01T07:12:59;36.54;30.89;40.03;;
46749;Laerm;33775;47.992;11.864;2023-03-01T07:15:25;36.47;26.91;39.46;;
46749;Laerm;33775;47.992;11.864;2023-03-01T07:17:50;36.50;30.89;39.81;;
46749;Laerm;33775;47.992;11.864;2023-03-01T07:20:19;36.50;26.91;39.34;;
46749;Laerm;33775;47.992;11.864;2023-03-01T07:22:47;36.45;29.92;39.92;;
46749;Laerm;33775;47.992;11.864;2023-03-01T07:25:13;36.50;29.92;39.81;;
46749;Laerm;33775;47.992;11.864;2023-03-01T07:27:38;36.50;28.67;39.81;;
46749;Laerm;33775;47.992;11.864;2023-03-01T07:30:03;36.47;29.92;39.92;;
46749;Laerm;33775;47.992;11.864;2023-03-01T07:32:29;36.49;30.54;40.13;;
46749;Laerm;33775;47.992;11.864;2023-03-01T07:34:54;36.47;29.92;39.34;;
46749;Laerm;33775;47.992;11.864;2023-03-01T07:37:19;36.45;28.67;40.03;;
46749;Laerm;33775;47.992;11.864;2023-03-01T07:39:44;36.45;30.89;40.13;;
46749;Laerm;33775;47.992;11.864;2023-03-01T07:42:09;36.45;28.67;39.81;;
46749;Laerm;33775;47.992;11.864;2023-03-01T07:44:35;36.45;26.91;39.58;;
46749;Laerm;33775;47.992;11.864;2023-03-01T07:47:00;36.44;28.67;39.81;;
46749;Laerm;33775;47.992;11.864;2023-03-01T07:49:25;36.43;23.90;39.70;;
46749;Laerm;33775;47.992;11.864;2023-03-01T07:51:54;36.44;29.92;39.46;;
46749;Laerm;33775;47.992;11.864;2023-03-01T07:54:19;36.47;28.67;39.58;;
46749;Laerm;33775;47.992;11.864;2023-03-01T07:56:44;36.46;28.67;39.81;;
46749;Laerm;33775;47.992;11.864;2023-03-01T07:59:10;36.43;28.67;39.46;;
46749;Laerm;33775;47.992;11.864;2023-03-01T08:01:35;36.40;29.92;39.58;;
46749;Laerm;33775;47.992;11.864;2023-03-01T08:04:00;36.44;28.67;39.58;;
46749;Laerm;33775;47.992;11.864;2023-03-01T08:06:26;36.43;29.92;39.81;;
46749;Laerm;33775;47.992;11.864;2023-03-01T08:08:52;36.46;29.92;39.58;;
46749;Laerm;33775;47.992;11.864;2023-03-01T08:11:17;36.43;29.92;39.11;;
46749;Laerm;33775;47.992;11.864;2023-03-01T08:13:42;36.45;26.91;39.70;;
46749;Laerm;33775;47.992;11.864;2023-03-01T08:16:12;36.41;29.92;39.81;;
46749;Laerm;33775;47.992;11.864;2023-03-01T08:18:38;36.41;28.67;39.58;;
46749;Laerm;33775;47.992;11.864;2023-03-01T08:21:04;36.42;28.67;40.23;;
46749;Laerm;33775;47.992;11.864;2023-03-01T08:23:29;36.45;29.92;40.23;;
46749;Laerm;33775;47.992;11.864;2023-03-01T08:25:55;36.42;29.92;39.58;;
46749;Laerm;33775;47.992;11.864;2023-03-01T08:28:20;36.42;28.67;39.68;;
46749;Laerm;33775;47.992;11.864;2023-03-01T08:30:45;36.44;28.67;39.21;;
46749;Laerm;33775;47.992;11.864;2023-03-01T08:33:11;36.41;26.91;39.81;;
46749;Laerm;33775;47.992;11.864;2023-03-01T08:35:36;36.42;30.89;39.81;;
46749;Laerm;33775;47.992;11.864;2023-03-01T08:38:01;36.45;28.67;39.34;;
46749;Laerm;33775;47.992;11.864;2023-03-01T08:40:26;36.42;29.92;39.58;;
46749;Laerm;33775;47.992;11.864;2023-03-01T08:42:51;36.44;31.33;40.33;;
46749;Laerm;33775;47.992;11.864;2023-03-01T08:45:17;36.45;28.67;39.70;;
46749;Laerm;33775;47.992;11.864;2023-03-01T08:47:43;36.44;28.67;39.58;;
46749;Laerm;33775;47.992;11.864;2023-03-01T08:50:10;36.44;29.92;39.46;;
46749;Laerm;33775;47.992;11.864;2023-03-01T08:52:35;36.44;28.67;39.81;;
46749;Laerm;33775;47.992;11.864;2023-03-01T08:55:00;36.41;28.67;39.46;;
46749;Laerm;33775;47.992;11.864;2023-03-01T08:57:26;36.43;30.54;39.70;;
46749;Laerm;33775;47.992;11.864;2023-03-01T08:59:51;36.40;26.91;39.46;;
46749;Laerm;33775;47.992;11.864;2023-03-01T09:02:17;36.44;29.92;39.58;;
46749;Laerm;33775;47.992;11.864;2023-03-01T09:04:42;36.42;29.92;39.34;;
46749;Laerm;33775;47.992;11.864;2023-03-01T09:07:08;36.44;30.89;40.03;;
46749;Laerm;33775;47.992;11.864;2023-03-01T09:09:33;36.42;28.67;39.58;;
46749;Laerm;33775;47.992;11.864;2023-03-01T09:12:01;36.44;29.92;39.46;;
46749;Laerm;33775;47.992;11.864;2023-03-01T09:14:27;36.47;29.92;39.70;;
46749;Laerm;33775;47.992;11.864;2023-03-01T09:16:53;36.43;30.89;39.21;;
46749;Laerm;33775;47.992;11.864;2023-03-01T09:19:18;36.46;26.91;39.70;;
46749;Laerm;33775;47.992;11.864;2023-03-01T09:21:43;36.48;29.92;39.46;;
46749;Laerm;33775;47.992;11.864;2023-03-01T09:24:18;36.48;26.91;39.34;;
46749;Laerm;33775;47.992;11.864;2023-03-01T09:26:43;36.49;29.92;39.70;;
46749;Laerm;33775;47.992;11.864;2023-03-01T09:29:11;36.51;28.67;39.70;;
46749;Laerm;33775;47.992;11.864;2023-03-01T09:31:36;36.48;26.91;39.70;;
46749;Laerm;33775;47.992;11.864;2023-03-01T09:34:01;36.51;30.89;39.70;;
46749;Laerm;33775;47.992;11.864;2023-03-01T09:36:26;36.49;28.67;39.46;;
46749;Laerm;33775;47.992;11.864;2023-03-01T09:38:52;36.50;30.89;39.34;;
46749;Laerm;33775;47.992;11.864;2023-03-01T09:42:20;36.48;29.92;39.58;;
46749;Laerm;33775;47.992;11.864;2023-03-01T09:46:45;36.48;29.92;39.89;;
46749;Laerm;33775;47.992;11.864;2023-03-01T09:49:15;36.49;31.68;39.34;;
46749;Laerm;33775;47.992;11.864;2023-03-01T09:51:42;36.47;30.89;40.03;;
46749;Laerm;33775;47.992;11.864;2023-03-01T09:54:08;36.50;31.33;39.81;;
46749;Laerm;33775;47.992;11.864;2023-03-01T09:56:44;36.51;29.92;39.81;;
46749;Laerm;33775;47.992;11.864;2023-03-01T10:04:24;36.47;29.92;39.58;;
46749;Laerm;33775;47.992;11.864;2023-03-01T10:06:56;36.47;28.67;39.46;;
46749;Laerm;33775;47.992;11.864;2023-03-01T10:09:23;36.50;30.89;40.03;;
46749;Laerm;33775;47.992;11.864;2023-03-01T10:11:49;36.49;29.92;39.46;;
46749;Laerm;33775;47.992;11.864;2023-03-01T10:19:38;36.50;28.67;39.46;;
46749;Laerm;33775;47.992;11.864;2023-03-01T10:24:42;36.47;28.67;39.81;;
46749;Laerm;33775;47.992;11.864;2023-03-01T10:27:14;36.48;28.67;39.58;;
46749;Laerm;33775;47.992;11.864;2023-03-01T10:32:13;36.49;28.67;39.46;;
46749;Laerm;33775;47.992;11.864;2023-03-01T10:34:39;36.51;30.89;39.58;;
46749;Laerm;33775;47.992;11.864;2023-03-01T10:37:11;36.48;30.89;39.46;;
46749;Laerm;33775;47.992;11.864;2023-03-01T10:39:37;36.50;28.67;39.70;;
46749;Laerm;33775;47.992;11.864;2023-03-01T10:42:19;36.48;26.91;39.46;;
46749;Laerm;33775;47.992;11.864;2023-03-01T10:44:48;36.47;31.68;39.70;;
46749;Laerm;33775;47.992;11.864;2023-03-01T10:47:18;36.49;30.89;39.70;;
46749;Laerm;33775;47.992;11.864;2023-03-01T10:52:36;36.49;29.92;39.81;;
46749;Laerm;33775;47.992;11.864;2023-03-01T10:57:46;36.54;29.92;39.92;;
46749;Laerm;33775;47.992;11.864;2023-03-01T11:02:41;36.55;30.89;39.21;;
46749;Laerm;33775;47.992;11.864;2023-03-01T11:05:16;36.55;30.89;39.81;;
46749;Laerm;33775;47.992;11.864;2023-03-01T11:07:55;36.55;30.89;39.70;;
46749;Laerm;33775;47.992;11.864;2023-03-01T11:10:31;36.57;29.92;39.21;;
46749;Laerm;33775;47.992;11.864;2023-03-01T11:13:06;36.56;30.89;39.81;;
46749;Laerm;33775;47.992;11.864;2023-03-01T11:15:32;36.55;23.90;39.34;;
46749;Laerm;33775;47.992;11.864;2023-03-01T11:17:57;36.55;30.89;39.46;;
46749;Laerm;33775;47.992;11.864;2023-03-01T11:22:55;36.56;30.89;39.58;;
46749;Laerm;33775;47.992;11.864;2023-03-01T11:25:23;36.59;28.67;39.78;;
46749;Laerm;33775;47.992;11.864;2023-03-01T11:27:49;36.59;30.89;39.46;;
46749;Laerm;33775;47.992;11.864;2023-03-01T11:33:04;36.66;30.89;39.81;;
46749;Laerm;33775;47.992;11.864;2023-03-01T11:35:34;36.81;29.92;39.92;;
46749;Laerm;33775;47.992;11.864;2023-03-01T11:45:47;36.73;31.68;40.13;;
46749;Laerm;33775;47.992;11.864;2023-03-01T11:48:25;36.67;30.89;39.46;;
46749;Laerm;33775;47.992;11.864;2023-03-01T11:50:56;36.75;29.92;39.58;;
46749;Laerm;33775;47.992;11.864;2023-03-01T11:55:59;36.85;32.35;39.81;;
46749;Laerm;33775;47.992;11.864;2023-03-01T12:01:25;37.09;32.35;40.03;;
46749;Laerm;33775;47.992;11.864;2023-03-01T12:04:10;37.10;31.68;39.70;;
46749;Laerm;33775;47.992;11.864;2023-03-01T12:22:17;37.15;32.93;40.03;;
46749;Laerm;33775;47.992;11.864;2023-03-01T12:25:10;37.21;32.35;39.92;;
46749;Laerm;33775;47.992;11.864;2023-03-01T12:32:55;37.05;32.35;40.08;;
46749;Laerm;33775;47.992;11.864;2023-03-01T12:38:55;37.01;28.67;39.78;;
46749;Laerm;33775;47.992;11.864;2023-03-01T12:48:59;36.94;32.58;39.92;;
46749;Laerm;33775;47.992;11.864;2023-03-01T12:51:26;36.96;32.35;39.81;;
46749;Laerm;33775;47.992;11.864;2023-03-01T12:53:53;36.93;32.35;39.58;;
46749;Laerm;33775;47.992;11.864;2023-03-01T12:56:23;36.93;32.00;40.03;;
46749;Laerm;33775;47.992;11.864;2023-03-01T13:01:45;36.93;31.68;39.92;;
46749;Laerm;33775;47.992;11.864;2023-03-01T13:04:31;36.92;32.35;39.70;;
46749;Laerm;33775;47.992;11.864;2023-03-01T13:14:59;36.90;31.68;40.03;;
46749;Laerm;33775;47.992;11.864;2023-03-01T13:17:29;36.89;32.35;39.58;;
46749;Laerm;33775;47.992;11.864;2023-03-01T13:19:56;36.87;29.92;39.70;;
46749;Laerm;33775;47.992;11.864;2023-03-01T13:22:25;36.91;31.68;39.81;;
46749;Laerm;33775;47.992;11.864;2023-03-01T13:25:00;36.85;32.35;39.70;;
46749;Laerm;33775;47.992;11.864;2023-03-01T13:27:25;36.91;32.35;40.03;;
46749;Laerm;33775;47.992;11.864;2023-03-01T13:29:57;36.89;32.35;39.81;;
46749;Laerm;33775;47.992;11.864;2023-03-01T13:32:31;36.89;30.89;39.70;;
46749;Laerm;33775;47.992;11.864;2023-03-01T13:37:35;36.93;32.58;40.43;;
46749;Laerm;33775;47.992;11.864;2023-03-01T13:40:04;36.90;31.68;39.92;;
46749;Laerm;33775;47.992;11.864;2023-03-01T13:44:58;36.91;31.68;39.81;;
46749;Laerm;33775;47.992;11.864;2023-03-01T13:47:24;36.91;30.89;39.58;;
46749;Laerm;33775;47.992;11.864;2023-03-01T13:49:59;36.89;31.68;39.58;;
46749;Laerm;33775;47.992;11.864;2023-03-01T13:52:38;36.89;31.68;40.03;;
46749;Laerm;33775;47.992;11.864;2023-03-01T13:55:17;36.89;32.35;39.70;;
46749;Laerm;33775;47.992;11.864;2023-03-01T13:57:45;36.89;32.35;40.03;;
46749;Laerm;33775;47.992;11.864;2023-03-01T14:05:27;36.91;32.35;39.70;;
46749;Laerm;33775;47.992;11.864;2023-03-01T14:07:53;36.89;30.89;39.70;;
46749;Laerm;33775;47.992;11.864;2023-03-01T14:10:19;36.92;31.68;40.03;;
46749;Laerm;33775;47.992;11.864;2023-03-01T14:12:50;36.92;31.68;39.81;;
46749;Laerm;33775;47.992;11.864;2023-03-01T14:17:59;36.90;31.68;39.81;;
46749;Laerm;33775;47.992;11.864;2023-03-01T14:20:30;36.91;31.68;39.81;;
46749;Laerm;33775;47.992;11.864;2023-03-01T14:22:57;36.91;31.68;39.70;;
46749;Laerm;33775;47.992;11.864;2023-03-01T14:25:27;36.93;31.33;39.92;;
46749;Laerm;33775;47.992;11.864;2023-03-01T14:27:54;36.92;32.35;39.81;;
46749;Laerm;33775;47.992;11.864;2023-03-01T14:30:34;36.92;32.93;39.92;;
46749;Laerm;33775;47.992;11.864;2023-03-01T14:33:02;36.93;31.68;39.58;;
46749;Laerm;33775;47.992;11.864;2023-03-01T14:35:31;36.94;32.35;39.58;;
46749;Laerm;33775;47.992;11.864;2023-03-01T14:37:56;36.93;32.35;39.92;;
46749;Laerm;33775;47.992;11.864;2023-03-01T14:40:23;36.94;31.68;39.92;;
46749;Laerm;33775;47.992;11.864;2023-03-01T14:42:49;36.98;32.35;39.70;;
46749;Laerm;33775;47.992;11.864;2023-03-01T14:45:14;36.99;32.35;39.92;;
46749;Laerm;33775;47.992;11.864;2023-03-01T14:47:39;37.02;31.68;40.23;;
46749;Laerm;33775;47.992;11.864;2023-03-01T14:50:25;37.02;31.68;39.81;;
46749;Laerm;33775;47.992;11.864;2023-03-01T14:52:50;37.00;32.35;39.81;;
46749;Laerm;33775;47.992;11.864;2023-03-01T14:55:59;37.04;31.68;39.70;;
46749;Laerm;33775;47.992;11.864;2023-03-01T14:58:08;37.07;32.93;39.81;;
46749;Laerm;33775;47.992;11.864;2023-03-01T15:00:34;37.09;32.35;40.03;;
46749;Laerm;33775;47.992;11.864;2023-03-01T15:03:00;37.11;31.68;40.13;;
46749;Laerm;33775;47.992;11.864;2023-03-01T15:05:34;37.11;32.93;39.99;;
46749;Laerm;33775;47.992;11.864;2023-03-01T15:08:00;37.13;32.93;40.23;;
46749;Laerm;33775;47.992;11.864;2023-03-01T15:10:27;37.07;32.35;39.92;;
46749;Laerm;33775;47.992;11.864;2023-03-01T15:12:53;37.14;32.93;40.13;;
46749;Laerm;33775;47.992;11.864;2023-03-01T15:15:19;37.12;32.35;40.13;;
46749;Laerm;33775;47.992;11.864;2023-03-01T15:17:48;37.14;32.00;40.23;;
46749;Laerm;33775;47.992;11.864;2023-03-01T15:20:17;37.13;32.93;39.92;;
46749;Laerm;33775;47.992;11.864;2023-03-01T15:22:43;37.15;32.93;40.33;;
46749;Laerm;33775;47.992;11.864;2023-03-01T15:25:16;37.13;32.35;40.23;;
46749;Laerm;33775;47.992;11.864;2023-03-01T15:27:46;37.11;31.68;40.03;;
46749;Laerm;33775;47.992;11.864;2023-03-01T15:30:20;37.15;32.35;39.70;;